Time,TemperatureF,DewpointF,PressureIn,WindDirection,WindDirectionDegrees,WindSpeedMPH,WindSpeedGustMPH,Humidity,HourlyPrecipIn,Conditions,Clouds,dailyrainin,SolarRadiationWatts/m^2,SoftwareType,DateUTC
2013-11-23 00:03:00,19.0,4.0,-100.00,SE,138,5.0,8.0,52,0.00,,,0.00,0.000000,,2013-11-23 05:03:00,
2013-11-23 00:43:00,14.0,3.0,-100.00,SE,125,5.0,6.0,60,0.00,,,0.00,0.000000,,2013-11-23 05:43:00,
2013-11-23 00:53:00,14.0,3.0,-100.00,SE,125,5.0,6.0,60,0.00,,,0.00,0.000000,,2013-11-23 05:53:00,
2013-11-23 01:02:00,14.0,3.0,-100.00,SE,125,5.0,6.0,60,0.00,,,0.00,0.000000,,2013-11-23 06:02:00,
2013-11-23 01:42:00,14.0,4.0,-100.00,ESE,109,4.0,7.0,63,0.00,,,0.00,0.000000,,2013-11-23 06:42:00,
2013-11-23 01:52:00,14.0,4.0,-100.00,ESE,109,4.0,7.0,63,0.00,,,0.00,0.000000,,2013-11-23 06:52:00,
2013-11-23 02:01:00,14.0,4.0,-100.00,ESE,109,4.0,7.0,63,0.00,,,0.00,0.000000,,2013-11-23 07:01:00,
2013-11-23 02:42:00,13.0,4.0,-100.00,ESE,118,5.0,6.0,67,-99.99,,,0.00,0.000000,,2013-11-23 07:42:00,
2013-11-23 02:52:00,13.0,4.0,-100.00,ESE,118,5.0,6.0,67,-99.99,,,0.00,0.000000,,2013-11-23 07:52:00,
2013-11-23 03:01:00,13.0,4.0,-100.00,ESE,118,5.0,6.0,67,-99.99,,,0.00,0.000000,,2013-11-23 08:01:00,
2013-11-23 03:42:00,11.0,3.0,-100.00,ESE,123,5.0,7.0,70,0.00,,,0.00,0.000000,,2013-11-23 08:42:00,
2013-11-23 03:52:00,11.0,3.0,-100.00,ESE,123,5.0,7.0,70,0.00,,,0.00,0.000000,,2013-11-23 08:52:00,
2013-11-23 04:01:00,11.0,3.0,-100.00,ESE,123,5.0,7.0,70,0.00,,,0.00,0.000000,,2013-11-23 09:01:00,
2013-11-23 04:43:00,16.0,6.0,-100.00,ESE,122,7.0,9.0,63,0.00,,,0.00,0.000000,,2013-11-23 09:43:00,
2013-11-23 04:54:00,16.0,6.0,-100.00,ESE,122,7.0,9.0,63,0.00,,,0.00,0.000000,,2013-11-23 09:54:00,
2013-11-23 05:03:00,16.0,6.0,-100.00,ESE,122,7.0,9.0,63,0.00,,,0.00,0.000000,,2013-11-23 10:03:00,
2013-11-23 05:42:00,14.0,5.0,-100.00,East,83,3.0,7.0,67,0.00,,,0.00,0.000000,,2013-11-23 10:42:00,
2013-11-23 05:52:00,14.0,5.0,-100.00,East,83,3.0,7.0,67,0.00,,,0.00,0.000000,,2013-11-23 10:52:00,
2013-11-23 06:02:00,14.0,5.0,-100.00,East,83,3.0,7.0,67,0.00,,,0.00,0.000000,,2013-11-23 11:02:00,
2013-11-23 06:43:00,14.0,4.0,-100.00,ESE,107,3.0,6.0,64,0.00,,,-99.99,0.000000,,2013-11-23 11:43:00,
2013-11-23 06:52:00,14.0,4.0,-100.00,ESE,107,3.0,6.0,64,0.00,,,-99.99,0.000000,,2013-11-23 11:52:00,
2013-11-23 07:02:00,14.0,4.0,-100.00,ESE,107,3.0,6.0,64,0.00,,,-99.99,0.000000,,2013-11-23 12:02:00,
2013-11-23 07:42:00,12.0,4.0,-100.00,ESE,112,3.0,7.0,68,0.00,,,0.00,0.000000,,2013-11-23 12:42:00,
2013-11-23 07:52:00,12.0,4.0,-100.00,ESE,112,3.0,7.0,68,0.00,,,0.00,0.000000,,2013-11-23 12:52:00,
2013-11-23 08:01:00,12.0,4.0,-100.00,ESE,112,3.0,7.0,68,0.00,,,0.00,0.000000,,2013-11-23 13:01:00,
2013-11-23 08:42:00,11.0,3.0,-100.00,East,98,4.0,5.0,71,0.00,,,0.00,0.000000,,2013-11-23 13:42:00,
2013-11-23 08:52:00,11.0,3.0,-100.00,East,98,4.0,5.0,71,0.00,,,0.00,0.000000,,2013-11-23 13:52:00,
2013-11-23 09:02:00,11.0,3.0,-100.00,East,98,4.0,5.0,71,0.00,,,0.00,0.000000,,2013-11-23 14:02:00,
2013-11-23 09:42:00,13.0,5.0,-100.00,East,92,4.0,6.0,69,0.00,,,0.00,0.000000,,2013-11-23 14:42:00,
2013-11-23 09:52:00,13.0,5.0,-100.00,East,92,4.0,6.0,69,0.00,,,0.00,0.000000,,2013-11-23 14:52:00,
2013-11-23 10:02:00,13.0,5.0,-100.00,East,92,4.0,6.0,69,0.00,,,0.00,0.000000,,2013-11-23 15:02:00,
2013-11-23 10:43:00,16.0,6.0,-100.00,ESE,107,4.0,5.0,65,0.00,,,0.00,0.000000,,2013-11-23 15:43:00,
2013-11-23 10:54:00,16.0,6.0,-100.00,ESE,107,4.0,5.0,65,0.00,,,0.00,0.000000,,2013-11-23 15:54:00,
2013-11-23 11:04:00,16.0,6.0,-100.00,ESE,107,4.0,5.0,65,0.00,,,0.00,0.000000,,2013-11-23 16:04:00,
2013-11-23 11:43:00,18.0,8.0,-100.00,SE,131,5.0,6.0,65,0.00,,,0.00,27.000000,,2013-11-23 16:43:00,
2013-11-23 11:53:00,18.0,8.0,-100.00,SE,131,5.0,6.0,65,0.00,,,0.00,27.000000,,2013-11-23 16:53:00,
2013-11-23 12:02:00,18.0,8.0,-100.00,SE,131,5.0,6.0,65,0.00,,,0.00,27.000000,,2013-11-23 17:02:00,
2013-11-23 12:42:00,29.0,9.0,-100.00,East,80,3.0,5.0,43,0.00,,,0.00,157.000000,,2013-11-23 17:42:00,
2013-11-23 12:52:00,29.0,9.0,-100.00,East,80,3.0,5.0,43,0.00,,,0.00,157.000000,,2013-11-23 17:52:00,
2013-11-23 13:01:00,29.0,9.0,-100.00,East,80,3.0,5.0,43,0.00,,,0.00,157.000000,,2013-11-23 18:01:00,
2013-11-23 16:43:00,40.0,10.0,-100.00,West,266,5.0,9.0,29,0.00,,,0.00,379.000000,,2013-11-23 21:43:00,
2013-11-23 16:53:00,40.0,10.0,-100.00,West,266,5.0,9.0,29,0.00,,,0.00,379.000000,,2013-11-23 21:53:00,
2013-11-23 17:03:00,40.0,10.0,-100.00,West,266,5.0,9.0,29,0.00,,,0.00,379.000000,,2013-11-23 22:03:00,
2013-11-23 17:43:00,42.0,10.0,-100.00,WNW,300,4.0,8.0,27,0.00,,,0.00,331.000000,,2013-11-23 22:43:00,
2013-11-23 17:52:00,42.0,10.0,-100.00,WNW,300,4.0,8.0,27,0.00,,,0.00,331.000000,,2013-11-23 22:52:00,
2013-11-23 18:02:00,42.0,10.0,-100.00,WNW,300,4.0,8.0,27,0.00,,,0.00,331.000000,,2013-11-23 23:02:00,
2013-11-23 18:42:00,39.0,10.0,-100.00,WNW,296,4.0,10.0,30,0.00,,,0.00,224.000000,,2013-11-23 23:42:00,
2013-11-23 18:53:00,39.0,10.0,-100.00,WNW,296,4.0,10.0,30,0.00,,,0.00,224.000000,,2013-11-23 23:53:00,
2013-11-23 19:01:00,39.0,10.0,-100.00,WNW,296,4.0,10.0,30,0.00,,,0.00,224.000000,,2013-11-24 00:01:00,
2013-11-23 19:42:00,34.0,9.0,-100.00,SW,234,4.0,6.0,35,0.00,,,0.00,75.000000,,2013-11-24 00:42:00,
2013-11-23 19:52:00,34.0,9.0,-100.00,SW,234,4.0,6.0,35,0.00,,,0.00,75.000000,,2013-11-24 00:52:00,
2013-11-23 20:01:00,34.0,9.0,-100.00,SW,234,4.0,6.0,35,0.00,,,0.00,75.000000,,2013-11-24 01:01:00,
2013-11-23 20:42:00,26.0,7.0,-100.00,SSE,151,3.0,7.0,44,0.00,,,0.00,4.000000,,2013-11-24 01:42:00,
2013-11-23 20:52:00,26.0,7.0,-100.00,SSE,151,3.0,7.0,44,0.00,,,0.00,4.000000,,2013-11-24 01:52:00,
2013-11-23 21:01:00,26.0,7.0,-100.00,SSE,151,3.0,7.0,44,0.00,,,0.00,4.000000,,2013-11-24 02:01:00,
2013-11-23 21:42:00,20.0,6.0,-100.00,ESE,121,3.0,5.0,55,0.00,,,0.00,0.000000,,2013-11-24 02:42:00,
2013-11-23 21:52:00,20.0,6.0,-100.00,ESE,121,3.0,5.0,55,0.00,,,0.00,0.000000,,2013-11-24 02:52:00,
2013-11-23 22:02:00,20.0,6.0,-100.00,ESE,121,3.0,5.0,55,0.00,,,0.00,0.000000,,2013-11-24 03:02:00,
2013-11-23 22:43:00,21.0,7.0,-100.00,ESE,117,5.0,8.0,54,-99.99,,,0.00,0.000000,,2013-11-24 03:43:00,
2013-11-23 22:53:00,21.0,7.0,-100.00,ESE,117,5.0,8.0,54,-99.99,,,0.00,0.000000,,2013-11-24 03:53:00,
2013-11-23 23:02:00,-999.0,-99.9,-100.00,ESE,117,5.0,8.0,54,-99.99,,,0.00,0.000000,,2013-11-24 04:02:00,
2013-11-23 23:43:00,19.0,7.0,-100.00,SE,136,3.0,8.0,59,0.00,,,0.00,0.000000,,2013-11-24 04:43:00,
2013-11-23 23:53:00,19.0,7.0,-100.00,SE,136,3.0,8.0,59,0.00,,,0.00,0.000000,,2013-11-24 04:53:00,